sensor_id;sensor_type;location;lat;lon;timestamp;P1;durP1;ratioP1;P2;durP2;ratioP2
7645;SDS011;3864;48.180;14.178;2023-06-19T00:01:46;14.13;;;9.65;;
7645;SDS011;3864;48.180;14.178;2023-06-19T00:04:14;11.30;;;9.65;;
7645;SDS011;3864;48.180;14.178;2023-06-19T00:06:41;10.85;;;9.25;;
7645;SDS011;3864;48.180;14.178;2023-06-19T00:09:08;11.88;;;9.38;;
7645;SDS011;3864;48.180;14.178;2023-06-19T00:11:36;12.50;;;9.32;;
7645;SDS011;3864;48.180;14.178;2023-06-19T00:14:05;12.23;;;9.30;;
7645;SDS011;3864;48.180;14.178;2023-06-19T00:16:32;12.15;;;10.10;;
7645;SDS011;3864;48.180;14.178;2023-06-19T00:19:00;13.32;;;9.63;;
7645;SDS011;3864;48.180;14.178;2023-06-19T00:21:28;13.43;;;10.00;;
7645;SDS011;3864;48.180;14.178;2023-06-19T00:23:56;12.43;;;9.50;;
7645;SDS011;3864;48.180;14.178;2023-06-19T00:26:23;13.23;;;8.98;;
7645;SDS011;3864;48.180;14.178;2023-06-19T00:28:51;11.82;;;9.20;;
7645;SDS011;3864;48.180;14.178;2023-06-19T00:31:20;10.75;;;8.73;;
7645;SDS011;3864;48.180;14.178;2023-06-19T00:33:47;11.45;;;9.00;;
7645;SDS011;3864;48.180;14.178;2023-06-19T00:36:14;13.23;;;9.77;;
7645;SDS011;3864;48.180;14.178;2023-06-19T00:38:45;12.00;;;9.07;;
7645;SDS011;3864;48.180;14.178;2023-06-19T00:41:13;12.82;;;9.38;;
7645;SDS011;3864;48.180;14.178;2023-06-19T00:43:41;12.70;;;9.40;;
7645;SDS011;3864;48.180;14.178;2023-06-19T00:46:08;13.35;;;9.75;;
7645;SDS011;3864;48.180;14.178;2023-06-19T00:48:39;10.32;;;8.38;;
7645;SDS011;3864;48.180;14.178;2023-06-19T00:51:07;11.57;;;8.60;;
7645;SDS011;3864;48.180;14.178;2023-06-19T00:53:34;13.10;;;9.63;;
7645;SDS011;3864;48.180;14.178;2023-06-19T00:56:02;11.93;;;9.68;;
7645;SDS011;3864;48.180;14.178;2023-06-19T00:58:31;12.20;;;9.27;;
7645;SDS011;3864;48.180;14.178;2023-06-19T01:01:00;12.35;;;9.32;;
7645;SDS011;3864;48.180;14.178;2023-06-19T01:03:27;11.48;;;8.77;;
7645;SDS011;3864;48.180;14.178;2023-06-19T01:05:56;11.20;;;8.65;;
7645;SDS011;3864;48.180;14.178;2023-06-19T01:08:33;11.18;;;8.07;;
7645;SDS011;3864;48.180;14.178;2023-06-19T01:11:09;12.68;;;8.57;;
7645;SDS011;3864;48.180;14.178;2023-06-19T01:13:41;11.63;;;8.65;;
7645;SDS011;3864;48.180;14.178;2023-06-19T01:16:12;12.50;;;9.95;;
7645;SDS011;3864;48.180;14.178;2023-06-19T01:18:41;13.82;;;10.10;;
7645;SDS011;3864;48.180;14.178;2023-06-19T01:21:13;12.27;;;10.20;;
7645;SDS011;3864;48.180;14.178;2023-06-19T01:23:44;12.93;;;10.52;;
7645;SDS011;3864;48.180;14.178;2023-06-19T01:26:12;12.43;;;10.40;;
7645;SDS011;3864;48.180;14.178;2023-06-19T01:28:40;12.80;;;10.40;;
7645;SDS011;3864;48.180;14.178;2023-06-19T01:31:10;14.23;;;9.82;;
7645;SDS011;3864;48.180;14.178;2023-06-19T01:33:39;13.13;;;10.32;;
7645;SDS011;3864;48.180;14.178;2023-06-19T01:36:09;12.77;;;10.57;;
7645;SDS011;3864;48.180;14.178;2023-06-19T01:38:38;13.95;;;10.98;;
7645;SDS011;3864;48.180;14.178;2023-06-19T01:41:08;13.80;;;10.82;;
7645;SDS011;3864;48.180;14.178;2023-06-19T01:43:35;14.35;;;10.70;;
7645;SDS011;3864;48.180;14.178;2023-06-19T01:46:03;15.27;;;11.25;;
7645;SDS011;3864;48.180;14.178;2023-06-19T01:48:30;14.77;;;10.93;;
7645;SDS011;3864;48.180;14.178;2023-06-19T01:50:58;14.55;;;10.60;;
7645;SDS011;3864;48.180;14.178;2023-06-19T01:53:25;16.48;;;11.20;;
7645;SDS011;3864;48.180;14.178;2023-06-19T01:55:52;13.15;;;10.65;;
7645;SDS011;3864;48.180;14.178;2023-06-19T01:58:22;15.63;;;11.00;;
7645;SDS011;3864;48.180;14.178;2023-06-19T02:00:49;15.95;;;11.50;;
7645;SDS011;3864;48.180;14.178;2023-06-19T02:03:16;12.48;;;9.95;;
7645;SDS011;3864;48.180;14.178;2023-06-19T02:05:44;16.48;;;11.38;;
7645;SDS011;3864;48.180;14.178;2023-06-19T02:08:11;13.93;;;10.63;;
7645;SDS011;3864;48.180;14.178;2023-06-19T02:10:38;14.45;;;10.95;;
7645;SDS011;3864;48.180;14.178;2023-06-19T02:13:05;15.23;;;10.73;;
7645;SDS011;3864;48.180;14.178;2023-06-19T02:15:35;14.18;;;10.50;;
7645;SDS011;3864;48.180;14.178;2023-06-19T02:18:03;14.32;;;11.27;;
7645;SDS011;3864;48.180;14.178;2023-06-19T02:20:31;14.98;;;11.65;;
7645;SDS011;3864;48.180;14.178;2023-06-19T02:22:59;14.38;;;10.88;;
7645;SDS011;3864;48.180;14.178;2023-06-19T02:25:26;14.77;;;10.80;;
7645;SDS011;3864;48.180;14.178;2023-06-19T02:27:54;14.57;;;10.73;;
7645;SDS011;3864;48.180;14.178;2023-06-19T02:30:22;14.90;;;11.30;;
7645;SDS011;3864;48.180;14.178;2023-06-19T02:32:50;15.95;;;11.50;;
7645;SDS011;3864;48.180;14.178;2023-06-19T02:35:18;15.82;;;11.63;;
7645;SDS011;3864;48.180;14.178;2023-06-19T02:37:45;16.63;;;12.80;;
7645;SDS011;3864;48.180;14.178;2023-06-19T02:40:13;15.23;;;12.13;;
7645;SDS011;3864;48.180;14.178;2023-06-19T02:42:40;15.05;;;11.98;;
7645;SDS011;3864;48.180;14.178;2023-06-19T02:45:08;14.55;;;11.40;;
7645;SDS011;3864;48.180;14.178;2023-06-19T02:47:35;17.90;;;12.50;;
7645;SDS011;3864;48.180;14.178;2023-06-19T02:50:05;14.27;;;11.07;;
7645;SDS011;3864;48.180;14.178;2023-06-19T02:52:33;17.20;;;12.35;;
7645;SDS011;3864;48.180;14.178;2023-06-19T02:55:00;16.58;;;12.13;;
7645;SDS011;3864;48.180;14.178;2023-06-19T02:57:27;14.05;;;11.05;;
7645;SDS011;3864;48.180;14.178;2023-06-19T02:59:55;17.10;;;12.48;;
7645;SDS011;3864;48.180;14.178;2023-06-19T03:02:22;17.65;;;12.45;;
7645;SDS011;3864;48.180;14.178;2023-06-19T03:04:51;15.93;;;11.45;;
7645;SDS011;3864;48.180;14.178;2023-06-19T03:07:20;17.15;;;11.60;;
7645;SDS011;3864;48.180;14.178;2023-06-19T03:09:48;15.38;;;11.82;;
7645;SDS011;3864;48.180;14.178;2023-06-19T03:12:15;17.33;;;12.45;;
7645;SDS011;3864;48.180;14.178;2023-06-19T03:14:42;16.38;;;11.85;;
7645;SDS011;3864;48.180;14.178;2023-06-19T03:17:10;18.63;;;11.55;;
7645;SDS011;3864;48.180;14.178;2023-06-19T03:19:39;17.52;;;13.05;;
7645;SDS011;3864;48.180;14.178;2023-06-19T03:22:06;17.80;;;12.95;;
7645;SDS011;3864;48.180;14.178;2023-06-19T03:24:35;17.83;;;12.82;;
7645;SDS011;3864;48.180;14.178;2023-06-19T03:27:02;18.55;;;13.52;;
7645;SDS011;3864;48.180;14.178;2023-06-19T03:29:30;18.45;;;13.43;;
7645;SDS011;3864;48.180;14.178;2023-06-19T03:31:58;18.77;;;13.40;;
7645;SDS011;3864;48.180;14.178;2023-06-19T03:34:25;19.08;;;13.63;;
7645;SDS011;3864;48.180;14.178;2023-06-19T03:36:52;17.00;;;13.23;;
7645;SDS011;3864;48.180;14.178;2023-06-19T03:39:20;16.30;;;12.65;;
7645;SDS011;3864;48.180;14.178;2023-06-19T03:41:49;18.42;;;14.27;;
7645;SDS011;3864;48.180;14.178;2023-06-19T03:44:16;20.02;;;13.70;;
7645;SDS011;3864;48.180;14.178;2023-06-19T03:46:43;16.73;;;12.90;;
7645;SDS011;3864;48.180;14.178;2023-06-19T03:49:12;17.63;;;13.07;;
7645;SDS011;3864;48.180;14.178;2023-06-19T03:51:39;17.02;;;13.40;;
7645;SDS011;3864;48.180;14.178;2023-06-19T03:54:07;16.58;;;11.98;;
7645;SDS011;3864;48.180;14.178;2023-06-19T03:56:34;16.15;;;11.60;;
7645;SDS011;3864;48.180;14.178;2023-06-19T03:59:03;14.90;;;11.68;;
7645;SDS011;3864;48.180;14.178;2023-06-19T04:01:30;16.63;;;11.75;;
7645;SDS011;3864;48.180;14.178;2023-06-19T04:03:57;14.60;;;11.98;;
7645;SDS011;3864;48.180;14.178;2023-06-19T04:06:25;13.05;;;10.18;;
7645;SDS011;3864;48.180;14.178;2023-06-19T04:08:52;14.18;;;11.05;;
7645;SDS011;3864;48.180;14.178;2023-06-19T04:11:19;14.63;;;11.25;;
7645;SDS011;3864;48.180;14.178;2023-06-19T04:13:47;14.85;;;10.43;;
7645;SDS011;3864;48.180;14.178;2023-06-19T04:16:16;15.80;;;11.15;;
7645;SDS011;3864;48.180;14.178;2023-06-19T04:18:43;13.50;;;10.43;;
7645;SDS011;3864;48.180;14.178;2023-06-19T04:21:11;14.35;;;9.93;;
7645;SDS011;3864;48.180;14.178;2023-06-19T04:23:38;12.85;;;10.25;;
7645;SDS011;3864;48.180;14.178;2023-06-19T04:26:06;11.60;;;10.15;;
7645;SDS011;3864;48.180;14.178;2023-06-19T04:28:33;12.50;;;10.02;;
7645;SDS011;3864;48.180;14.178;2023-06-19T04:31:00;13.00;;;9.70;;
7645;SDS011;3864;48.180;14.178;2023-06-19T04:33:30;12.35;;;9.73;;
7645;SDS011;3864;48.180;14.178;2023-06-19T04:35:57;13.38;;;9.20;;
7645;SDS011;3864;48.180;14.178;2023-06-19T04:38:25;11.93;;;9.57;;
7645;SDS011;3864;48.180;14.178;2023-06-19T04:40:53;11.55;;;9.68;;
7645;SDS011;3864;48.180;14.178;2023-06-19T04:43:22;10.95;;;8.60;;
7645;SDS011;3864;48.180;14.178;2023-06-19T04:45:51;11.95;;;9.40;;
7645;SDS011;3864;48.180;14.178;2023-06-19T04:48:18;13.07;;;8.90;;
7645;SDS011;3864;48.180;14.178;2023-06-19T04:50:51;11.18;;;9.05;;
7645;SDS011;3864;48.180;14.178;2023-06-19T04:53:21;13.57;;;10.05;;
7645;SDS011;3864;48.180;14.178;2023-06-19T04:55:48;10.82;;;9.30;;
7645;SDS011;3864;48.180;14.178;2023-06-19T04:58:16;12.35;;;8.98;;
7645;SDS011;3864;48.180;14.178;2023-06-19T05:00:46;14.00;;;8.95;;
7645;SDS011;3864;48.180;14.178;2023-06-19T05:03:16;13.30;;;9.63;;
7645;SDS011;3864;48.180;14.178;2023-06-19T05:05:43;10.48;;;9.38;;
7645;SDS011;3864;48.180;14.178;2023-06-19T05:08:13;11.70;;;9.55;;
7645;SDS011;3864;48.180;14.178;2023-06-19T05:10:40;10.77;;;8.90;;
7645;SDS011;3864;48.180;14.178;2023-06-19T05:13:07;12.40;;;10.27;;
7645;SDS011;3864;48.180;14.178;2023-06-19T05:15:34;12.05;;;10.50;;
7645;SDS011;3864;48.180;14.178;2023-06-19T05:18:02;12.00;;;10.35;;
7645;SDS011;3864;48.180;14.178;2023-06-19T05:20:29;13.27;;;11.07;;
7645;SDS011;3864;48.180;14.178;2023-06-19T05:22:56;12.88;;;11.45;;
7645;SDS011;3864;48.180;14.178;2023-06-19T05:25:25;14.82;;;11.65;;
7645;SDS011;3864;48.180;14.178;2023-06-19T05:27:54;13.50;;;11.38;;
7645;SDS011;3864;48.180;14.178;2023-06-19T05:30:21;16.48;;;12.27;;
7645;SDS011;3864;48.180;14.178;2023-06-19T05:32:49;14.43;;;11.38;;
7645;SDS011;3864;48.180;14.178;2023-06-19T05:35:16;13.15;;;11.43;;
7645;SDS011;3864;48.180;14.178;2023-06-19T05:37:45;14.35;;;11.10;;
7645;SDS011;3864;48.180;14.178;2023-06-19T05:40:12;13.48;;;11.05;;
7645;SDS011;3864;48.180;14.178;2023-06-19T05:42:41;13.13;;;11.43;;
7645;SDS011;3864;48.180;14.178;2023-06-19T05:45:09;15.57;;;11.30;;
7645;SDS011;3864;48.180;14.178;2023-06-19T05:47:37;20.10;;;12.45;;
7645;SDS011;3864;48.180;14.178;2023-06-19T05:50:04;20.23;;;12.27;;
7645;SDS011;3864;48.180;14.178;2023-06-19T05:52:32;14.90;;;11.20;;
7645;SDS011;3864;48.180;14.178;2023-06-19T05:55:00;25.10;;;12.07;;
7645;SDS011;3864;48.180;14.178;2023-06-19T05:57:27;20.98;;;11.15;;
7645;SDS011;3864;48.180;14.178;2023-06-19T05:59:56;17.35;;;11.23;;
7645;SDS011;3864;48.180;14.178;2023-06-19T06:02:23;20.35;;;11.85;;
7645;SDS011;3864;48.180;14.178;2023-06-19T06:04:53;15.60;;;11.20;;
7645;SDS011;3864;48.180;14.178;2023-06-19T06:07:21;14.70;;;10.63;;
7645;SDS011;3864;48.180;14.178;2023-06-19T06:09:49;15.23;;;11.68;;
7645;SDS011;3864;48.180;14.178;2023-06-19T06:12:17;13.45;;;10.77;;
7645;SDS011;3864;48.180;14.178;2023-06-19T06:14:44;13.55;;;11.13;;
7645;SDS011;3864;48.180;14.178;2023-06-19T06:17:13;17.83;;;10.98;;
7645;SDS011;3864;48.180;14.178;2023-06-19T06:19:40;13.20;;;10.30;;
7645;SDS011;3864;48.180;14.178;2023-06-19T06:22:08;13.07;;;10.27;;
7645;SDS011;3864;48.180;14.178;2023-06-19T06:24:35;11.60;;;9.90;;
7645;SDS011;3864;48.180;14.178;2023-06-19T06:27:04;11.95;;;9.98;;
7645;SDS011;3864;48.180;14.178;2023-06-19T06:29:31;12.93;;;10.00;;
7645;SDS011;3864;48.180;14.178;2023-06-19T06:32:02;9.75;;;8.75;;
7645;SDS011;3864;48.180;14.178;2023-06-19T06:34:33;11.27;;;9.40;;
7645;SDS011;3864;48.180;14.178;2023-06-19T06:37:00;12.10;;;9.77;;
7645;SDS011;3864;48.180;14.178;2023-06-19T06:39:28;12.30;;;9.95;;
7645;SDS011;3864;48.180;14.178;2023-06-19T06:41:56;11.23;;;9.52;;
7645;SDS011;3864;48.180;14.178;2023-06-19T06:44:23;14.23;;;10.60;;
7645;SDS011;3864;48.180;14.178;2023-06-19T06:46:51;11.48;;;10.15;;
7645;SDS011;3864;48.180;14.178;2023-06-19T06:49:19;12.48;;;10.60;;
7645;SDS011;3864;48.180;14.178;2023-06-19T06:51:48;12.88;;;11.50;;
7645;SDS011;3864;48.180;14.178;2023-06-19T06:54:16;12.07;;;10.40;;
7645;SDS011;3864;48.180;14.178;2023-06-19T06:56:43;12.65;;;10.15;;
7645;SDS011;3864;48.180;14.178;2023-06-19T06:59:13;13.35;;;9.73;;
7645;SDS011;3864;48.180;14.178;2023-06-19T07:01:41;10.63;;;9.18;;
7645;SDS011;3864;48.180;14.178;2023-06-19T07:04:08;12.27;;;10.00;;
7645;SDS011;3864;48.180;14.178;2023-06-19T07:06:35;10.73;;;8.70;;
7645;SDS011;3864;48.180;14.178;2023-06-19T07:09:05;11.60;;;9.45;;
7645;SDS011;3864;48.180;14.178;2023-06-19T07:11:32;11.07;;;9.32;;
7645;SDS011;3864;48.180;14.178;2023-06-19T07:13:59;10.75;;;9.63;;
7645;SDS011;3864;48.180;14.178;2023-06-19T07:16:27;12.32;;;9.57;;
7645;SDS011;3864;48.180;14.178;2023-06-19T07:18:54;10.20;;;9.10;;
7645;SDS011;3864;48.180;14.178;2023-06-19T07:21:21;11.63;;;9.50;;
7645;SDS011;3864;48.180;14.178;2023-06-19T07:23:49;11.05;;;9.20;;
7645;SDS011;3864;48.180;14.178;2023-06-19T07:26:18;10.40;;;8.90;;
7645;SDS011;3864;48.180;14.178;2023-06-19T07:28:46;12.98;;;10.27;;
7645;SDS011;3864;48.180;14.178;2023-06-19T07:31:13;12.23;;;9.35;;
7645;SDS011;3864;48.180;14.178;2023-06-19T07:33:41;10.85;;;9.27;;
7645;SDS011;3864;48.180;14.178;2023-06-19T07:36:08;11.82;;;8.90;;
7645;SDS011;3864;48.180;14.178;2023-06-19T07:38:39;11.43;;;9.10;;
7645;SDS011;3864;48.180;14.178;2023-06-19T07:41:06;9.82;;;8.73;;
7645;SDS011;3864;48.180;14.178;2023-06-19T07:43:37;10.70;;;8.82;;
7645;SDS011;3864;48.180;14.178;2023-06-19T07:46:04;13.13;;;9.50;;
7645;SDS011;3864;48.180;14.178;2023-06-19T07:48:31;14.32;;;10.30;;
7645;SDS011;3864;48.180;14.178;2023-06-19T07:50:59;15.07;;;10.27;;
7645;SDS011;3864;48.180;14.178;2023-06-19T07:53:26;12.27;;;10.57;;
7645;SDS011;3864;48.180;14.178;2023-06-19T07:55:53;13.70;;;10.35;;
7645;SDS011;3864;48.180;14.178;2023-06-19T07:58:20;15.93;;;10.40;;
7645;SDS011;3864;48.180;14.178;2023-06-19T08:00:50;13.10;;;9.90;;
7645;SDS011;3864;48.180;14.178;2023-06-19T08:03:17;12.60;;;9.18;;
7645;SDS011;3864;48.180;14.178;2023-06-19T08:05:45;13.45;;;9.38;;
7645;SDS011;3864;48.180;14.178;2023-06-19T08:08:12;15.15;;;9.60;;
7645;SDS011;3864;48.180;14.178;2023-06-19T08:10:39;13.88;;;9.48;;
7645;SDS011;3864;48.180;14.178;2023-06-19T08:13:07;12.82;;;9.80;;
7645;SDS011;3864;48.180;14.178;2023-06-19T08:15:36;11.52;;;9.10;;
7645;SDS011;3864;48.180;14.178;2023-06-19T08:18:04;16.52;;;10.02;;
7645;SDS011;3864;48.180;14.178;2023-06-19T08:20:32;15.98;;;10.02;;
7645;SDS011;3864;48.180;14.178;2023-06-19T08:22:59;13.70;;;9.05;;
7645;SDS011;3864;48.180;14.178;2023-06-19T08:25:26;13.60;;;9.40;;
7645;SDS011;3864;48.180;14.178;2023-06-19T08:27:54;18.40;;;10.73;;
7645;SDS011;3864;48.180;14.178;2023-06-19T08:30:20;15.43;;;9.45;;
7645;SDS011;3864;48.180;14.178;2023-06-19T08:32:48;12.02;;;9.00;;
7645;SDS011;3864;48.180;14.178;2023-06-19T08:35:17;17.60;;;9.30;;
7645;SDS011;3864;48.180;14.178;2023-06-19T08:37:45;15.63;;;9.15;;
7645;SDS011;3864;48.180;14.178;2023-06-19T08:40:12;14.73;;;9.55;;
7645;SDS011;3864;48.180;14.178;2023-06-19T08:42:39;14.95;;;9.23;;
7645;SDS011;3864;48.180;14.178;2023-06-19T08:45:08;17.20;;;10.32;;
7645;SDS011;3864;48.180;14.178;2023-06-19T08:47:35;12.35;;;10.38;;
7645;SDS011;3864;48.180;14.178;2023-06-19T08:50:03;15.90;;;10.75;;
7645;SDS011;3864;48.180;14.178;2023-06-19T08:52:32;12.82;;;9.65;;
7645;SDS011;3864;48.180;14.178;2023-06-19T08:55:00;11.38;;;8.93;;
7645;SDS011;3864;48.180;14.178;2023-06-19T08:57:34;16.52;;;10.27;;
7645;SDS011;3864;48.180;14.178;2023-06-19T09:00:08;10.48;;;8.82;;
7645;SDS011;3864;48.180;14.178;2023-06-19T09:02:37;11.38;;;8.18;;
7645;SDS011;3864;48.180;14.178;2023-06-19T09:05:10;11.90;;;8.10;;
7645;SDS011;3864;48.180;14.178;2023-06-19T09:07:39;10.32;;;8.10;;
7645;SDS011;3864;48.180;14.178;2023-06-19T09:10:14;9.88;;;8.27;;
7645;SDS011;3864;48.180;14.178;2023-06-19T09:12:43;10.63;;;8.73;;
7645;SDS011;3864;48.180;14.178;2023-06-19T09:15:11;10.50;;;8.27;;
7645;SDS011;3864;48.180;14.178;2023-06-19T09:17:39;10.27;;;8.23;;
7645;SDS011;3864;48.180;14.178;2023-06-19T09:20:07;11.63;;;9.40;;
7645;SDS011;3864;48.180;14.178;2023-06-19T09:22:37;12.15;;;8.38;;
7645;SDS011;3864;48.180;14.178;2023-06-19T09:25:07;11.27;;;8.07;;
7645;SDS011;3864;48.180;14.178;2023-06-19T09:27:36;12.80;;;8.65;;
7645;SDS011;3864;48.180;14.178;2023-06-19T09:30:04;10.27;;;8.70;;
7645;SDS011;3864;48.180;14.178;2023-06-19T09:32:33;11.70;;;8.25;;
7645;SDS011;3864;48.180;14.178;2023-06-19T09:35:01;10.70;;;8.43;;
7645;SDS011;3864;48.180;14.178;2023-06-19T09:37:29;11.75;;;10.07;;
7645;SDS011;3864;48.180;14.178;2023-06-19T09:39:58;10.25;;;9.00;;
7645;SDS011;3864;48.180;14.178;2023-06-19T09:42:29;12.80;;;9.77;;
7645;SDS011;3864;48.180;14.178;2023-06-19T09:45:00;11.88;;;9.93;;
7645;SDS011;3864;48.180;14.178;2023-06-19T09:47:30;11.85;;;9.82;;
7645;SDS011;3864;48.180;14.178;2023-06-19T09:49:58;9.65;;;8.65;;
7645;SDS011;3864;48.180;14.178;2023-06-19T09:52:28;9.82;;;8.63;;
7645;SDS011;3864;48.180;14.178;2023-06-19T09:54:56;10.20;;;8.57;;
7645;SDS011;3864;48.180;14.178;2023-06-19T09:57:23;8.57;;;7.65;;
7645;SDS011;3864;48.180;14.178;2023-06-19T09:59:54;12.68;;;9.07;;
7645;SDS011;3864;48.180;14.178;2023-06-19T10:02:23;11.18;;;9.20;;
7645;SDS011;3864;48.180;14.178;2023-06-19T10:04:52;10.60;;;8.45;;
7645;SDS011;3864;48.180;14.178;2023-06-19T10:07:23;10.35;;;8.05;;
7645;SDS011;3864;48.180;14.178;2023-06-19T10:09:57;12.52;;;8.70;;
7645;SDS011;3864;48.180;14.178;2023-06-19T10:12:38;13.05;;;9.57;;
7645;SDS011;3864;48.180;14.178;2023-06-19T10:15:12;11.40;;;9.40;;
7645;SDS011;3864;48.180;14.178;2023-06-19T10:20:23;15.30;;;9.80;;
7645;SDS011;3864;48.180;14.178;2023-06-19T10:22:55;10.73;;;7.63;;
7645;SDS011;3864;48.180;14.178;2023-06-19T10:27:54;12.32;;;8.70;;
7645;SDS011;3864;48.180;14.178;2023-06-19T10:30:23;12.00;;;9.60;;
7645;SDS011;3864;48.180;14.178;2023-06-19T10:32:51;11.40;;;9.75;;
7645;SDS011;3864;48.180;14.178;2023-06-19T10:35:18;11.40;;;8.52;;
7645;SDS011;3864;48.180;14.178;2023-06-19T10:37:49;9.38;;;8.38;;
7645;SDS011;3864;48.180;14.178;2023-06-19T10:40:16;11.13;;;9.10;;
7645;SDS011;3864;48.180;14.178;2023-06-19T10:42:44;9.75;;;8.40;;
7645;SDS011;3864;48.180;14.178;2023-06-19T10:45:12;10.20;;;8.00;;
7645;SDS011;3864;48.180;14.178;2023-06-19T10:47:44;8.07;;;7.28;;
7645;SDS011;3864;48.180;14.178;2023-06-19T10:50:12;11.10;;;8.32;;
7645;SDS011;3864;48.180;14.178;2023-06-19T10:52:41;10.02;;;7.80;;
7645;SDS011;3864;48.180;14.178;2023-06-19T10:55:09;8.10;;;7.30;;
7645;SDS011;3864;48.180;14.178;2023-06-19T10:57:37;9.18;;;7.85;;
7645;SDS011;3864;48.180;14.178;2023-06-19T11:00:06;8.85;;;7.63;;
7645;SDS011;3864;48.180;14.178;2023-06-19T11:02:39;10.88;;;8.98;;
7645;SDS011;3864;48.180;14.178;2023-06-19T11:05:10;9.30;;;8.40;;
7645;SDS011;3864;48.180;14.178;2023-06-19T11:07:37;9.70;;;8.48;;
7645;SDS011;3864;48.180;14.178;2023-06-19T11:10:06;11.45;;;7.93;;
7645;SDS011;3864;48.180;14.178;2023-06-19T11:12:34;9.52;;;8.45;;
7645;SDS011;3864;48.180;14.178;2023-06-19T11:15:05;9.43;;;7.95;;
7645;SDS011;3864;48.180;14.178;2023-06-19T11:17:32;8.93;;;8.02;;
7645;SDS011;3864;48.180;14.178;2023-06-19T11:20:00;9.00;;;8.10;;
7645;SDS011;3864;48.180;14.178;2023-06-19T11:22:38;8.95;;;8.05;;
7645;SDS011;3864;48.180;14.178;2023-06-19T11:25:07;9.38;;;7.85;;
7645;SDS011;3864;48.180;14.178;2023-06-19T11:27:39;9.35;;;8.45;;
7645;SDS011;3864;48.180;14.178;2023-06-19T11:30:06;9.35;;;8.30;;
7645;SDS011;3864;48.180;14.178;2023-06-19T11:32:36;9.15;;;8.25;;
7645;SDS011;3864;48.180;14.178;2023-06-19T11:35:07;9.63;;;8.63;;
7645;SDS011;3864;48.180;14.178;2023-06-19T11:37:39;9.07;;;7.43;;
7645;SDS011;3864;48.180;14.178;2023-06-19T11:40:07;8.45;;;7.50;;
7645;SDS011;3864;48.180;14.178;2023-06-19T11:42:51;10.68;;;8.10;;
7645;SDS011;3864;48.180;14.178;2023-06-19T11:45:20;8.25;;;7.13;;
7645;SDS011;3864;48.180;14.178;2023-06-19T11:47:48;8.02;;;7.22;;
7645;SDS011;3864;48.180;14.178;2023-06-19T11:50:16;9.45;;;7.15;;
7645;SDS011;3864;48.180;14.178;2023-06-19T11:52:46;7.93;;;6.90;;
7645;SDS011;3864;48.180;14.178;2023-06-19T11:55:13;7.50;;;6.63;;
7645;SDS011;3864;48.180;14.178;2023-06-19T11:57:42;7.53;;;6.82;;
7645;SDS011;3864;48.180;14.178;2023-06-19T12:00:14;8.55;;;7.40;;
7645;SDS011;3864;48.180;14.178;2023-06-19T12:02:43;7.80;;;6.78;;
7645;SDS011;3864;48.180;14.178;2023-06-19T12:05:13;7.68;;;6.80;;
7645;SDS011;3864;48.180;14.178;2023-06-19T12:07:41;7.43;;;6.72;;
7645;SDS011;3864;48.180;14.178;2023-06-19T12:10:10;9.02;;;6.65;;
7645;SDS011;3864;48.180;14.178;2023-06-19T12:12:38;9.50;;;6.63;;
7645;SDS011;3864;48.180;14.178;2023-06-19T12:15:06;7.03;;;6.32;;
7645;SDS011;3864;48.180;14.178;2023-06-19T12:17:34;7.47;;;6.30;;
7645;SDS011;3864;48.180;14.178;2023-06-19T12:20:02;7.93;;;6.82;;
7645;SDS011;3864;48.180;14.178;2023-06-19T12:22:32;8.80;;;6.57;;
7645;SDS011;3864;48.180;14.178;2023-06-19T12:25:00;7.45;;;6.38;;
7645;SDS011;3864;48.180;14.178;2023-06-19T12:27:29;8.70;;;7.03;;
7645;SDS011;3864;48.180;14.178;2023-06-19T12:29:56;8.60;;;6.75;;
7645;SDS011;3864;48.180;14.178;2023-06-19T12:32:24;6.97;;;6.07;;
7645;SDS011;3864;48.180;14.178;2023-06-19T12:34:51;8.45;;;6.10;;
7645;SDS011;3864;48.180;14.178;2023-06-19T12:37:19;8.15;;;6.57;;
7645;SDS011;3864;48.180;14.178;2023-06-19T12:39:47;10.02;;;6.55;;
7645;SDS011;3864;48.180;14.178;2023-06-19T12:42:14;7.25;;;6.18;;
7645;SDS011;3864;48.180;14.178;2023-06-19T12:44:43;7.05;;;6.15;;
7645;SDS011;3864;48.180;14.178;2023-06-19T12:47:11;6.75;;;6.05;;
7645;SDS011;3864;48.180;14.178;2023-06-19T12:49:39;13.88;;;6.57;;
7645;SDS011;3864;48.180;14.178;2023-06-19T12:52:06;7.63;;;6.22;;
7645;SDS011;3864;48.180;14.178;2023-06-19T12:54:35;12.95;;;6.50;;
7645;SDS011;3864;48.180;14.178;2023-06-19T12:57:02;7.55;;;6.30;;
7645;SDS011;3864;48.180;14.178;2023-06-19T12:59:30;7.07;;;6.38;;
7645;SDS011;3864;48.180;14.178;2023-06-19T13:01:59;8.40;;;6.47;;
7645;SDS011;3864;48.180;14.178;2023-06-19T13:04:26;7.15;;;5.75;;
7645;SDS011;3864;48.180;14.178;2023-06-19T13:06:54;9.93;;;6.43;;
7645;SDS011;3864;48.180;14.178;2023-06-19T13:09:21;11.70;;;6.57;;
7645;SDS011;3864;48.180;14.178;2023-06-19T13:11:49;8.23;;;6.47;;
7645;SDS011;3864;48.180;14.178;2023-06-19T13:14:16;7.15;;;6.45;;
7645;SDS011;3864;48.180;14.178;2023-06-19T13:16:44;7.47;;;6.20;;
7645;SDS011;3864;48.180;14.178;2023-06-19T13:19:13;6.78;;;6.07;;
7645;SDS011;3864;48.180;14.178;2023-06-19T13:21:41;9.68;;;6.35;;
7645;SDS011;3864;48.180;14.178;2023-06-19T13:24:09;9.18;;;6.80;;
7645;SDS011;3864;48.180;14.178;2023-06-19T13:26:37;7.65;;;6.63;;
7645;SDS011;3864;48.180;14.178;2023-06-19T13:29:04;9.32;;;6.30;;
7645;SDS011;3864;48.180;14.178;2023-06-19T13:31:32;7.63;;;6.15;;
7645;SDS011;3864;48.180;14.178;2023-06-19T13:33:59;8.50;;;6.30;;
7645;SDS011;3864;48.180;14.178;2023-06-19T13:36:28;7.03;;;6.10;;
7645;SDS011;3864;48.180;14.178;2023-06-19T13:38:55;7.20;;;5.72;;
7645;SDS011;3864;48.180;14.178;2023-06-19T13:41:23;6.68;;;5.93;;
7645;SDS011;3864;48.180;14.178;2023-06-19T13:43:52;8.27;;;5.85;;
7645;SDS011;3864;48.180;14.178;2023-06-19T13:46:20;7.72;;;5.95;;
7645;SDS011;3864;48.180;14.178;2023-06-19T13:48:48;7.93;;;5.65;;
7645;SDS011;3864;48.180;14.178;2023-06-19T13:51:16;7.22;;;5.70;;
7645;SDS011;3864;48.180;14.178;2023-06-19T13:53:45;9.18;;;5.72;;
7645;SDS011;3864;48.180;14.178;2023-06-19T13:56:12;5.65;;;4.95;;
7645;SDS011;3864;48.180;14.178;2023-06-19T13:58:40;6.38;;;5.32;;
7645;SDS011;3864;48.180;14.178;2023-06-19T14:01:07;6.35;;;5.30;;
7645;SDS011;3864;48.180;14.178;2023-06-19T14:03:36;8.65;;;5.88;;
7645;SDS011;3864;48.180;14.178;2023-06-19T14:06:05;9.23;;;5.95;;
7645;SDS011;3864;48.180;14.178;2023-06-19T14:08:32;8.13;;;5.75;;
7645;SDS011;3864;48.180;14.178;2023-06-19T14:11:01;6.80;;;5.32;;
7645;SDS011;3864;48.180;14.178;2023-06-19T14:13:29;8.23;;;5.93;;
7645;SDS011;3864;48.180;14.178;2023-06-19T14:15:56;5.97;;;5.38;;
7645;SDS011;3864;48.180;14.178;2023-06-19T14:18:24;7.35;;;5.43;;
7645;SDS011;3864;48.180;14.178;2023-06-19T14:20:51;7.03;;;5.25;;
7645;SDS011;3864;48.180;14.178;2023-06-19T14:23:18;6.45;;;5.75;;
7645;SDS011;3864;48.180;14.178;2023-06-19T14:25:46;7.18;;;5.47;;
7645;SDS011;3864;48.180;14.178;2023-06-19T14:28:14;6.22;;;5.22;;
7645;SDS011;3864;48.180;14.178;2023-06-19T14:30:42;6.22;;;5.60;;
7645;SDS011;3864;48.180;14.178;2023-06-19T14:33:10;6.57;;;5.78;;
7645;SDS011;3864;48.180;14.178;2023-06-19T14:35:40;8.48;;;5.55;;
7645;SDS011;3864;48.180;14.178;2023-06-19T14:38:10;7.10;;;5.55;;
7645;SDS011;3864;48.180;14.178;2023-06-19T14:40:38;5.72;;;5.13;;
7645;SDS011;3864;48.180;14.178;2023-06-19T14:43:05;7.00;;;5.57;;
7645;SDS011;3864;48.180;14.178;2023-06-19T14:45:35;5.88;;;5.28;;
7645;SDS011;3864;48.180;14.178;2023-06-19T14:48:04;6.50;;;5.35;;
7645;SDS011;3864;48.180;14.178;2023-06-19T14:50:32;6.03;;;5.43;;
7645;SDS011;3864;48.180;14.178;2023-06-19T14:53:00;6.88;;;5.45;;
7645;SDS011;3864;48.180;14.178;2023-06-19T14:55:27;6.15;;;5.55;;
7645;SDS011;3864;48.180;14.178;2023-06-19T14:57:54;6.88;;;5.38;;